createdAt,value
2019-05-21T00:00:09.493Z,18.01
2019-05-21T00:01:09.477Z,18.02
2019-05-21T00:02:09.490Z,17.96
2019-05-21T00:03:09.468Z,17.92
2019-05-21T00:04:09.451Z,17.92
2019-05-21T00:05:09.435Z,17.92
2019-05-21T00:06:09.424Z,17.92
2019-05-21T00:07:09.420Z,17.95
2019-05-21T00:08:09.492Z,17.87
2019-05-21T00:09:09.400Z,17.91
2019-05-21T00:10:09.381Z,17.83
2019-05-21T00:11:09.371Z,17.94
2019-05-21T00:12:09.356Z,17.83
2019-05-21T00:13:09.361Z,17.80
2019-05-21T00:14:09.336Z,17.84
2019-05-21T00:15:09.342Z,17.76
2019-05-21T00:16:09.329Z,17.74
2019-05-21T00:17:09.341Z,17.76
2019-05-21T00:18:09.363Z,17.73
2019-05-21T00:19:09.313Z,17.70
2019-05-21T00:20:09.273Z,17.73
2019-05-21T00:21:09.279Z,17.74
2019-05-21T00:22:09.251Z,17.74
2019-05-21T00:23:09.249Z,17.74
2019-05-21T00:24:09.229Z,17.68
2019-05-21T00:25:09.224Z,17.68
2019-05-21T00:26:09.206Z,17.70
2019-05-21T00:27:09.212Z,17.65
2019-05-21T00:28:09.205Z,17.65
2019-05-21T00:29:09.170Z,17.60
2019-05-21T00:30:09.170Z,17.60
2019-05-21T00:31:09.148Z,17.62
2019-05-21T00:32:09.143Z,17.65
2019-05-21T00:33:09.127Z,17.63
2019-05-21T00:34:09.131Z,17.65
2019-05-21T00:35:09.106Z,17.63
2019-05-21T00:36:09.093Z,17.62
2019-05-21T00:37:09.081Z,17.66
2019-05-21T00:38:09.073Z,17.65
2019-05-21T00:39:09.079Z,17.60
2019-05-21T00:40:09.050Z,17.68
2019-05-21T00:41:09.106Z,17.60
2019-05-21T00:42:09.033Z,17.63
2019-05-21T00:43:09.020Z,17.60
2019-05-21T00:44:09.224Z,17.58
2019-05-21T00:45:08.995Z,17.54
2019-05-21T00:46:08.988Z,17.54
2019-05-21T00:47:08.975Z,17.53
2019-05-21T00:48:08.963Z,17.54
2019-05-21T00:49:09.103Z,17.46
2019-05-21T00:50:08.945Z,17.54
2019-05-21T00:51:08.928Z,17.51
2019-05-21T00:52:09.533Z,17.47
2019-05-21T00:53:08.908Z,17.47
2019-05-21T00:54:08.915Z,17.46
2019-05-21T00:55:08.884Z,17.47
2019-05-21T00:56:08.875Z,17.42
2019-05-21T00:57:08.863Z,17.46
2019-05-21T00:58:08.864Z,17.47
2019-05-21T00:59:08.854Z,17.40
2019-05-21T01:00:08.885Z,17.36
2019-05-21T01:01:08.820Z,17.36
2019-05-21T01:02:08.809Z,17.40
2019-05-21T01:03:08.803Z,17.39
2019-05-21T01:04:08.798Z,17.38
2019-05-21T01:05:08.792Z,17.40
2019-05-21T01:06:08.782Z,17.40
2019-05-21T01:07:08.756Z,17.39
2019-05-21T01:08:08.741Z,17.40
2019-05-21T01:09:08.746Z,17.39
2019-05-21T01:10:08.726Z,17.42
2019-05-21T01:11:08.709Z,17.42
2019-05-21T01:12:08.710Z,17.51
2019-05-21T01:13:08.689Z,17.38
2019-05-21T01:14:08.694Z,17.33
2019-05-21T01:15:08.666Z,17.39
2019-05-21T01:16:08.659Z,17.43
2019-05-21T01:17:08.643Z,17.38
2019-05-21T01:18:08.633Z,17.32
2019-05-21T01:19:08.655Z,17.45
2019-05-21T01:20:08.612Z,17.36
2019-05-21T01:21:08.599Z,17.40
2019-05-21T01:22:08.605Z,17.25
2019-05-21T01:23:08.581Z,17.25
2019-05-21T01:24:08.571Z,17.24
2019-05-21T01:25:08.626Z,17.36
2019-05-21T01:26:08.549Z,17.20
2019-05-21T01:27:08.544Z,17.24
2019-05-21T01:28:08.527Z,17.24
2019-05-21T01:29:08.514Z,17.21
2019-05-21T01:30:08.522Z,17.21
2019-05-21T01:31:08.494Z,17.25
2019-05-21T01:32:08.485Z,17.24
2019-05-21T01:33:08.467Z,17.15
2019-05-21T01:34:11.289Z,17.22
2019-05-21T01:35:16.585Z,17.25
2019-05-21T01:36:09.433Z,17.10
2019-05-21T01:37:08.425Z,17.15
2019-05-21T01:38:08.413Z,17.20
2019-05-21T01:39:08.401Z,17.10
2019-05-21T01:40:08.405Z,17.24
2019-05-21T01:41:08.380Z,17.17
2019-05-21T01:42:08.371Z,17.12
2019-05-21T01:43:08.358Z,17.12
2019-05-21T01:44:08.346Z,17.14
2019-05-21T01:45:08.349Z,17.09
2019-05-21T01:46:08.347Z,17.12
2019-05-21T01:47:08.315Z,17.09
2019-05-21T01:48:08.304Z,17.15
2019-05-21T01:49:08.297Z,17.09
2019-05-21T01:50:08.292Z,17.12
2019-05-21T01:51:08.295Z,17.05
2019-05-21T01:52:08.264Z,17.15
2019-05-21T01:53:08.250Z,17.15
2019-05-21T01:54:08.240Z,17.06
2019-05-21T01:55:08.239Z,17.02
2019-05-21T01:56:08.218Z,17.06
2019-05-21T01:57:08.206Z,17.05
2019-05-21T01:58:08.196Z,16.99
2019-05-21T01:59:08.185Z,17.00
2019-05-21T02:00:08.183Z,17.00
2019-05-21T02:01:08.159Z,17.02
2019-05-21T02:02:08.151Z,17.03
2019-05-21T02:03:08.140Z,16.99
2019-05-21T02:04:08.133Z,17.02
2019-05-21T02:05:08.170Z,16.96
2019-05-21T02:06:08.110Z,16.96
2019-05-21T02:07:08.094Z,16.98
2019-05-21T02:08:08.083Z,17.00
2019-05-21T02:09:08.072Z,16.98
2019-05-21T02:10:08.065Z,16.96
2019-05-21T02:11:08.066Z,16.90
2019-05-21T02:12:10.761Z,16.96
2019-05-21T02:13:08.027Z,16.95
2019-05-21T02:14:08.016Z,16.85
2019-05-21T02:15:08.006Z,16.95
2019-05-21T02:16:08.009Z,16.92
2019-05-21T02:17:07.983Z,16.92
2019-05-21T02:18:07.975Z,16.92
2019-05-21T02:19:07.961Z,16.92
2019-05-21T02:20:07.974Z,16.95
2019-05-21T02:21:07.969Z,16.91
2019-05-21T02:22:07.932Z,16.92
2019-05-21T02:23:07.921Z,16.95
2019-05-21T02:24:07.941Z,16.88
2019-05-21T02:25:07.897Z,16.90
2019-05-21T02:26:07.911Z,16.88
2019-05-21T02:27:07.908Z,16.78
2019-05-21T02:28:07.870Z,16.87
2019-05-21T02:29:07.855Z,16.77
2019-05-21T02:30:09.540Z,16.78
2019-05-21T02:31:07.844Z,16.82
2019-05-21T02:32:07.824Z,16.82
2019-05-21T02:33:07.811Z,16.82
2019-05-21T02:34:07.809Z,16.84
2019-05-21T02:35:07.787Z,16.77
2019-05-21T02:36:07.793Z,16.82
2019-05-21T02:37:07.765Z,16.75
2019-05-21T02:38:07.754Z,16.75
2019-05-21T02:39:07.755Z,16.77
2019-05-21T02:40:07.777Z,16.77
2019-05-21T02:41:07.741Z,16.70
2019-05-21T02:42:07.754Z,16.70
2019-05-21T02:43:07.704Z,16.70
2019-05-21T02:44:07.709Z,16.70
2019-05-21T02:45:07.684Z,16.67
2019-05-21T02:46:07.712Z,16.63
2019-05-21T02:47:07.668Z,16.63
2019-05-21T02:48:07.646Z,16.63
2019-05-21T02:49:07.632Z,16.65
2019-05-21T02:50:07.628Z,16.59
2019-05-21T02:51:07.611Z,16.59
2019-05-21T02:52:07.614Z,16.60
2019-05-21T02:53:07.588Z,16.66
2019-05-21T02:54:07.578Z,16.70
2019-05-21T02:55:07.581Z,16.59
2019-05-21T02:56:07.569Z,16.63
2019-05-21T02:57:07.553Z,16.51
2019-05-21T02:58:07.538Z,16.66
2019-05-21T02:59:07.524Z,16.60
2019-05-21T03:00:07.513Z,16.60
2019-05-21T03:01:07.501Z,16.51
2019-05-21T03:02:07.518Z,16.59
2019-05-21T03:03:07.479Z,16.63
2019-05-21T03:04:07.470Z,16.54
2019-05-21T03:05:07.456Z,16.52
2019-05-21T03:06:13.938Z,16.51
2019-05-21T03:07:08.448Z,16.50
2019-05-21T03:08:07.425Z,16.52
2019-05-21T03:09:07.412Z,16.52
2019-05-21T03:10:07.400Z,16.50
2019-05-21T03:11:07.395Z,16.55
2019-05-21T03:12:07.391Z,16.48
2019-05-21T03:13:07.369Z,16.55
2019-05-21T03:14:07.367Z,16.50
2019-05-21T03:15:07.347Z,16.45
2019-05-21T03:16:07.336Z,16.44
2019-05-21T03:17:07.336Z,16.50
2019-05-21T03:18:07.315Z,16.44
2019-05-21T03:19:07.306Z,16.40
2019-05-21T03:20:07.297Z,16.47
2019-05-21T03:21:07.302Z,16.45
2019-05-21T03:22:07.280Z,16.36
2019-05-21T03:23:07.260Z,16.41
2019-05-21T03:24:07.248Z,16.40
2019-05-21T03:25:07.246Z,16.36
2019-05-21T03:26:07.226Z,16.33
2019-05-21T03:27:07.229Z,16.37
2019-05-21T03:28:07.203Z,16.36
2019-05-21T03:29:07.208Z,16.40
2019-05-21T03:30:07.190Z,16.40
2019-05-21T03:31:07.169Z,16.36
2019-05-21T03:32:07.216Z,16.34
2019-05-21T03:33:07.152Z,16.30
2019-05-21T03:34:07.137Z,16.32
2019-05-21T03:35:07.141Z,16.32
2019-05-21T03:36:07.114Z,16.30
2019-05-21T03:37:07.105Z,16.32
2019-05-21T03:38:07.105Z,16.40
2019-05-21T03:39:07.083Z,16.32
2019-05-21T03:40:07.080Z,16.36
2019-05-21T03:41:07.059Z,16.40
2019-05-21T03:42:07.058Z,16.41
2019-05-21T03:43:07.051Z,16.30
2019-05-21T03:44:07.026Z,16.34
2019-05-21T03:45:08.045Z,16.34
2019-05-21T03:46:07.006Z,16.30
2019-05-21T03:47:06.997Z,16.30
2019-05-21T03:48:06.999Z,16.30
2019-05-21T03:49:06.970Z,16.30
2019-05-21T03:50:06.976Z,16.30
2019-05-21T03:51:06.949Z,16.33
2019-05-21T03:52:06.942Z,16.34
2019-05-21T03:53:06.946Z,16.33
2019-05-21T03:54:06.923Z,16.36
2019-05-21T03:55:06.906Z,16.33
2019-05-21T03:56:06.896Z,16.25
2019-05-21T03:57:06.886Z,16.29
2019-05-21T03:58:06.921Z,16.33
2019-05-21T03:59:06.862Z,16.27
2019-05-21T04:00:06.850Z,16.30
2019-05-21T04:01:06.844Z,16.34
2019-05-21T04:02:06.844Z,16.34
2019-05-21T04:03:06.831Z,16.33
2019-05-21T04:04:06.807Z,16.23
2019-05-21T04:05:06.811Z,16.27
2019-05-21T04:06:06.789Z,16.32
2019-05-21T04:07:06.772Z,16.30
2019-05-21T04:08:06.775Z,16.33
2019-05-21T04:09:06.751Z,16.34
2019-05-21T04:10:06.745Z,16.26
2019-05-21T04:11:06.732Z,16.33
2019-05-21T04:12:06.720Z,16.36
2019-05-21T04:13:06.717Z,16.27
2019-05-21T04:14:06.695Z,16.32
2019-05-21T04:15:06.683Z,16.37
2019-05-21T04:16:06.677Z,16.32
2019-05-21T04:17:06.662Z,16.26
2019-05-21T04:18:06.664Z,16.36
2019-05-21T04:19:06.642Z,16.22
2019-05-21T04:20:06.651Z,16.32
2019-05-21T04:21:06.629Z,16.23
2019-05-21T04:22:06.622Z,16.33
2019-05-21T04:23:06.599Z,16.29
2019-05-21T04:24:09.156Z,16.27
2019-05-21T04:25:06.580Z,16.34
2019-05-21T04:26:06.563Z,16.26
2019-05-21T04:27:06.564Z,16.30
2019-05-21T04:28:06.545Z,16.30
2019-05-21T04:29:06.540Z,16.27
2019-05-21T04:30:06.521Z,16.34
2019-05-21T04:31:06.508Z,16.32
2019-05-21T04:32:06.511Z,16.33
2019-05-21T04:33:06.505Z,16.37
2019-05-21T04:34:06.476Z,16.45
2019-05-21T04:35:06.466Z,16.34
2019-05-21T04:36:06.463Z,16.41
2019-05-21T04:37:10.822Z,16.37
2019-05-21T04:38:07.461Z,16.41
2019-05-21T04:39:06.439Z,16.41
2019-05-21T04:40:06.411Z,16.48
2019-05-21T04:41:06.399Z,16.50
2019-05-21T04:42:06.397Z,16.48
2019-05-21T04:43:06.461Z,16.52
2019-05-21T04:44:06.366Z,16.54
2019-05-21T04:45:06.362Z,16.57
2019-05-21T04:46:06.342Z,16.51
2019-05-21T04:47:06.355Z,16.54
2019-05-21T04:48:06.321Z,16.52
2019-05-21T04:49:06.309Z,16.48
2019-05-21T04:50:06.301Z,16.59
2019-05-21T04:51:06.295Z,16.62
2019-05-21T04:52:06.295Z,16.63
2019-05-21T04:53:06.265Z,16.59
2019-05-21T04:54:06.254Z,16.54
2019-05-21T04:55:06.249Z,16.52
2019-05-21T04:56:06.237Z,16.51
2019-05-21T04:57:06.234Z,16.62
2019-05-21T04:58:06.211Z,16.63
2019-05-21T04:59:06.208Z,16.66
2019-05-21T05:00:06.201Z,16.69
2019-05-21T05:01:06.177Z,16.72
2019-05-21T05:02:06.178Z,16.72
2019-05-21T05:03:06.159Z,16.75
2019-05-21T05:04:06.152Z,16.69
2019-05-21T05:05:06.134Z,16.78
2019-05-21T05:06:06.122Z,16.88
2019-05-21T05:07:06.128Z,16.88
2019-05-21T05:08:06.107Z,16.77
2019-05-21T05:09:06.090Z,16.82
2019-05-21T05:10:06.080Z,16.96
2019-05-21T05:11:06.067Z,16.91
2019-05-21T05:12:06.092Z,16.92
2019-05-21T05:13:06.058Z,16.92
2019-05-21T05:14:06.035Z,16.91
2019-05-21T05:15:06.023Z,16.92
2019-05-21T05:16:06.012Z,17.00
2019-05-21T05:17:06.001Z,17.03
2019-05-21T05:18:05.999Z,16.99
2019-05-21T05:19:05.982Z,17.02
2019-05-21T05:20:05.969Z,17.02
2019-05-21T05:21:05.959Z,17.12
2019-05-21T05:22:05.947Z,17.12
2019-05-21T05:23:05.962Z,17.07
2019-05-21T05:24:05.930Z,17.10
2019-05-21T05:25:05.914Z,17.17
2019-05-21T05:26:05.905Z,17.12
2019-05-21T05:27:05.896Z,17.22
2019-05-21T05:28:05.916Z,17.28
2019-05-21T05:29:05.875Z,17.25
2019-05-21T05:30:05.859Z,17.25
2019-05-21T05:31:05.851Z,17.33
2019-05-21T05:32:05.885Z,17.38
2019-05-21T05:33:05.835Z,17.38
2019-05-21T05:34:05.815Z,17.38
2019-05-21T05:35:05.804Z,17.39
2019-05-21T05:36:05.792Z,17.40
2019-05-21T05:37:05.783Z,17.45
2019-05-21T05:38:05.781Z,17.55
2019-05-21T05:39:05.759Z,17.47
2019-05-21T05:40:05.770Z,17.51
2019-05-21T05:41:05.741Z,17.54
2019-05-21T05:42:05.726Z,17.62
2019-05-21T05:43:05.728Z,17.71
2019-05-21T05:44:05.704Z,17.79
2019-05-21T05:45:05.695Z,17.83
2019-05-21T05:46:05.683Z,17.81
2019-05-21T05:47:05.704Z,17.87
2019-05-21T05:48:05.677Z,17.81
2019-05-21T05:49:05.651Z,17.96
2019-05-21T05:50:05.640Z,17.91
2019-05-21T05:51:05.628Z,17.94
2019-05-21T05:52:05.628Z,18.09
2019-05-21T05:53:05.683Z,18.16
2019-05-21T05:54:07.682Z,18.20
2019-05-21T05:55:05.608Z,18.28
2019-05-21T05:56:05.578Z,18.36
2019-05-21T05:57:05.562Z,18.51
2019-05-21T05:58:05.571Z,18.54
2019-05-21T05:59:05.548Z,18.62
2019-05-21T06:00:05.529Z,18.65
2019-05-21T06:01:05.519Z,18.71
2019-05-21T06:02:05.508Z,18.72
2019-05-21T06:03:05.505Z,18.78
2019-05-21T06:04:05.572Z,18.84
2019-05-21T06:05:05.485Z,18.82
2019-05-21T06:06:05.470Z,18.89
2019-05-21T06:07:05.455Z,19.02
2019-05-21T06:08:05.474Z,19.10
2019-05-21T06:09:05.436Z,19.15
2019-05-21T06:10:05.426Z,19.23
2019-05-21T06:11:05.412Z,19.23
2019-05-21T06:12:05.402Z,19.31
2019-05-21T06:13:05.390Z,19.30
2019-05-21T06:14:05.386Z,19.40
2019-05-21T06:15:05.449Z,19.52
2019-05-21T06:16:05.358Z,19.53
2019-05-21T06:17:05.357Z,19.53
2019-05-21T06:18:05.333Z,19.55
2019-05-21T06:19:05.334Z,19.58
2019-05-21T06:20:05.427Z,19.61
2019-05-21T06:21:12.168Z,19.64
2019-05-21T06:22:06.170Z,19.62
2019-05-21T06:23:06.275Z,19.79
2019-05-21T06:24:05.682Z,19.72
2019-05-21T06:25:06.564Z,19.85
2019-05-21T06:26:05.259Z,19.92
2019-05-21T06:27:05.233Z,20.02
2019-05-21T06:28:05.223Z,20.04
2019-05-21T06:29:05.223Z,20.20
2019-05-21T06:30:05.200Z,20.37
2019-05-21T06:31:05.240Z,20.48
2019-05-21T06:32:05.180Z,20.61
2019-05-21T06:33:05.167Z,20.68
2019-05-21T06:34:05.173Z,20.79
2019-05-21T06:35:05.145Z,20.90
2019-05-21T06:36:05.387Z,20.91
2019-05-21T06:37:05.150Z,21.12
2019-05-21T06:38:17.273Z,21.22
2019-05-21T06:39:06.110Z,21.30
2019-05-21T06:40:05.096Z,21.42
2019-05-21T06:41:05.088Z,21.58
2019-05-21T06:42:05.070Z,21.74
2019-05-21T06:43:05.059Z,21.82
2019-05-21T06:44:05.058Z,21.93
2019-05-21T06:45:05.123Z,22.06
2019-05-21T06:46:05.025Z,21.99
2019-05-21T06:47:05.015Z,22.05
2019-05-21T06:48:05.005Z,22.01
2019-05-21T06:49:05.001Z,22.04
2019-05-21T06:50:04.982Z,21.96
2019-05-21T06:51:04.978Z,21.83
2019-05-21T06:52:04.964Z,21.82
2019-05-21T06:53:04.949Z,21.74
2019-05-21T06:54:04.958Z,21.74
2019-05-21T06:55:04.927Z,21.71
2019-05-21T06:56:07.602Z,21.67
2019-05-21T06:57:04.906Z,21.68
2019-05-21T06:58:04.912Z,21.79
2019-05-21T06:59:04.892Z,21.71
2019-05-21T07:00:04.878Z,21.70
2019-05-21T07:01:04.865Z,21.75
2019-05-21T07:02:04.882Z,21.74
2019-05-21T07:03:04.843Z,21.75
2019-05-21T07:04:04.879Z,21.79
2019-05-21T07:05:04.819Z,21.77
2019-05-21T07:06:04.825Z,21.83
2019-05-21T07:07:04.798Z,21.75
2019-05-21T07:08:04.787Z,21.74
2019-05-21T07:09:04.783Z,21.79
2019-05-21T07:10:04.766Z,21.71
2019-05-21T07:11:04.970Z,21.71
2019-05-21T07:12:04.745Z,21.73
2019-05-21T07:13:04.765Z,21.81
2019-05-21T07:14:04.737Z,21.77
2019-05-21T07:15:04.711Z,21.82
2019-05-21T07:16:04.698Z,21.81
2019-05-21T07:17:04.694Z,21.81
2019-05-21T07:18:04.687Z,21.81
2019-05-21T07:19:04.693Z,21.82
2019-05-21T07:20:04.655Z,21.83
2019-05-21T07:21:04.651Z,21.85
2019-05-21T07:22:12.775Z,21.81
2019-05-21T07:23:05.793Z,21.83
2019-05-21T07:24:04.626Z,21.77
2019-05-21T07:25:04.604Z,21.81
2019-05-21T07:26:04.617Z,21.83
2019-05-21T07:27:04.580Z,21.81
2019-05-21T07:28:04.571Z,21.79
2019-05-21T07:29:04.565Z,21.83
2019-05-21T07:30:04.558Z,21.82
2019-05-21T07:31:04.542Z,21.83
2019-05-21T07:32:04.527Z,21.94
2019-05-21T07:33:04.552Z,21.91
2019-05-21T07:34:04.509Z,22.01
2019-05-21T07:35:04.501Z,21.98
2019-05-21T07:36:04.483Z,22.04
2019-05-21T07:37:04.473Z,22.04
2019-05-21T07:38:04.459Z,22.08
2019-05-21T07:39:04.447Z,22.04
2019-05-21T07:40:04.459Z,22.04
2019-05-21T07:41:04.426Z,22.06
2019-05-21T07:42:04.414Z,22.14
2019-05-21T07:43:04.410Z,22.14
2019-05-21T07:44:04.401Z,22.17
2019-05-21T07:45:04.388Z,22.17
2019-05-21T07:46:04.370Z,22.26
2019-05-21T07:47:04.359Z,22.21
2019-05-21T07:48:04.366Z,22.27
2019-05-21T07:49:04.340Z,22.29
2019-05-21T07:50:04.336Z,22.29
2019-05-21T07:51:04.315Z,22.26
2019-05-21T07:52:04.304Z,22.26
2019-05-21T07:53:04.323Z,22.33
2019-05-21T07:54:04.329Z,22.42
2019-05-21T07:55:04.292Z,22.38
2019-05-21T07:56:04.261Z,22.44
2019-05-21T07:57:04.257Z,22.36
2019-05-21T07:58:04.239Z,22.38
2019-05-21T07:59:04.330Z,22.41
2019-05-21T08:00:04.222Z,22.48
2019-05-21T08:01:04.214Z,22.44
2019-05-21T08:02:04.198Z,22.52
2019-05-21T08:03:04.186Z,22.51
2019-05-21T08:04:04.178Z,22.52
2019-05-21T08:05:04.175Z,22.59
2019-05-21T08:06:04.151Z,22.52
2019-05-21T08:07:04.141Z,22.57
2019-05-21T08:08:04.127Z,22.69
2019-05-21T08:09:13.543Z,22.69
2019-05-21T08:10:05.114Z,22.81
2019-05-21T08:11:04.097Z,22.79
2019-05-21T08:12:22.807Z,22.75
2019-05-21T08:13:05.079Z,22.85
2019-05-21T08:14:04.063Z,22.88
2019-05-21T08:15:04.088Z,22.89
2019-05-21T08:16:04.041Z,23.01
2019-05-21T08:17:04.034Z,23.07
2019-05-21T08:18:04.026Z,23.15
2019-05-21T08:19:04.009Z,23.32
2019-05-21T08:20:09.144Z,23.67
2019-05-21T08:21:04.995Z,23.96
2019-05-21T08:22:03.983Z,24.27
2019-05-21T08:23:03.968Z,24.59
2019-05-21T08:24:03.964Z,25.02
2019-05-21T08:25:03.953Z,25.46
2019-05-21T08:26:03.945Z,25.86
2019-05-21T08:27:03.923Z,26.41
2019-05-21T08:28:03.917Z,27.03
2019-05-21T08:29:03.904Z,27.45
2019-05-21T08:30:03.894Z,27.77
2019-05-21T08:31:03.926Z,28.09
2019-05-21T08:32:03.871Z,28.46
2019-05-21T08:33:03.861Z,28.70
2019-05-21T08:34:03.851Z,29.08
2019-05-21T08:35:03.845Z,29.29
2019-05-21T08:36:04.287Z,29.41
2019-05-21T08:37:03.821Z,29.52
2019-05-21T08:38:06.584Z,29.62
2019-05-21T08:39:03.801Z,29.26
2019-05-21T08:40:03.790Z,29.39
2019-05-21T08:41:03.800Z,29.49
2019-05-21T08:42:03.847Z,29.62
2019-05-21T08:43:03.765Z,29.89
2019-05-21T08:44:03.825Z,30.28
2019-05-21T08:45:04.082Z,30.64
2019-05-21T08:46:03.805Z,31.03
2019-05-21T08:47:03.759Z,31.41
2019-05-21T08:48:03.727Z,31.85
2019-05-21T08:49:03.705Z,32.16
2019-05-21T08:50:03.704Z,32.47
2019-05-21T08:51:03.693Z,32.80
2019-05-21T08:52:03.668Z,33.05
2019-05-21T08:53:03.663Z,33.33
2019-05-21T08:54:03.650Z,33.53
2019-05-21T08:55:03.638Z,33.71
2019-05-21T08:56:03.642Z,33.81
2019-05-21T08:57:03.620Z,34.01
2019-05-21T08:58:07.387Z,34.12
2019-05-21T08:59:03.600Z,34.23
2019-05-21T09:00:03.592Z,34.36
2019-05-21T09:01:03.609Z,34.45
2019-05-21T09:02:03.588Z,34.36
2019-05-21T09:03:03.560Z,33.97
2019-05-21T09:04:03.551Z,33.63
2019-05-21T09:05:03.541Z,33.17
2019-05-21T09:06:03.541Z,32.99
2019-05-21T09:07:03.518Z,33.17
2019-05-21T09:08:03.510Z,33.35
2019-05-21T09:09:03.498Z,33.92
2019-05-21T09:10:03.489Z,34.48
2019-05-21T09:11:03.489Z,34.90
2019-05-21T09:12:03.486Z,35.12
2019-05-21T09:13:03.469Z,35.61
2019-05-21T09:14:03.450Z,35.84
2019-05-21T09:15:03.442Z,36.19
2019-05-21T09:16:03.438Z,36.37
2019-05-21T09:17:03.425Z,36.59
2019-05-21T09:18:03.421Z,36.89
2019-05-21T09:19:03.402Z,37.20
2019-05-21T09:20:03.417Z,37.47
2019-05-21T09:21:03.403Z,37.62
2019-05-21T09:22:03.373Z,37.81
2019-05-21T09:23:03.370Z,38.04
2019-05-21T09:24:03.422Z,38.24
2019-05-21T09:25:03.696Z,38.49
2019-05-21T09:26:03.349Z,38.50
2019-05-21T09:27:03.326Z,38.40
2019-05-21T09:28:03.317Z,38.36
2019-05-21T09:29:03.311Z,38.59
2019-05-21T09:30:03.305Z,38.79
2019-05-21T09:31:03.327Z,38.90
2019-05-21T09:32:03.278Z,39.02
2019-05-21T09:33:03.302Z,38.97
2019-05-21T09:34:03.261Z,38.97
2019-05-21T09:35:03.263Z,37.99
2019-05-21T09:36:03.242Z,36.74
2019-05-21T09:37:18.185Z,35.96
2019-05-21T09:38:04.224Z,35.17
2019-05-21T09:39:03.212Z,34.80
2019-05-21T09:40:03.224Z,34.03
2019-05-21T09:41:03.195Z,33.37
2019-05-21T09:42:03.200Z,32.91
2019-05-21T09:43:03.212Z,32.50
2019-05-21T09:44:03.165Z,32.14
2019-05-21T09:45:03.178Z,32.13
2019-05-21T09:46:03.144Z,32.35
2019-05-21T09:47:03.165Z,32.99
2019-05-21T09:48:03.131Z,32.54
2019-05-21T09:49:03.113Z,32.06
2019-05-21T09:50:03.713Z,33.28
2019-05-21T09:51:03.102Z,34.23
2019-05-21T09:52:03.096Z,34.95
2019-05-21T09:53:03.093Z,35.66
2019-05-21T09:54:03.064Z,36.25
2019-05-21T09:55:03.054Z,36.57
2019-05-21T09:56:03.044Z,37.08
2019-05-21T09:57:03.043Z,37.53
2019-05-21T09:58:03.022Z,37.85
2019-05-21T09:59:03.012Z,38.19
2019-05-21T10:00:03.909Z,38.60
2019-05-21T10:01:02.997Z,38.87
2019-05-21T10:02:02.994Z,39.09
2019-05-21T10:03:02.974Z,38.84
2019-05-21T10:04:02.967Z,38.53
2019-05-21T10:05:02.957Z,38.98
2019-05-21T10:06:02.947Z,39.32
2019-05-21T10:07:02.959Z,39.56
2019-05-21T10:08:02.929Z,39.80
2019-05-21T10:09:02.917Z,40.11
2019-05-21T10:10:02.915Z,38.50
2019-05-21T10:11:02.895Z,37.40
2019-05-21T10:12:02.898Z,36.67
2019-05-21T10:13:02.918Z,36.43
2019-05-21T10:14:02.893Z,35.74
2019-05-21T10:15:02.867Z,35.03
2019-05-21T10:16:02.846Z,34.69
2019-05-21T10:17:02.849Z,34.76
2019-05-21T10:18:02.829Z,34.26
2019-05-21T10:19:02.831Z,33.90
2019-05-21T10:20:02.814Z,33.31
2019-05-21T10:21:02.807Z,32.95
2019-05-21T10:22:02.935Z,32.47
2019-05-21T10:23:02.777Z,32.14
2019-05-21T10:24:02.774Z,31.90
2019-05-21T10:25:02.755Z,32.47
2019-05-21T10:26:02.752Z,32.66
2019-05-21T10:27:03.495Z,32.03
2019-05-21T10:28:02.726Z,31.76
2019-05-21T10:29:02.718Z,31.99
2019-05-21T10:30:02.707Z,32.02
2019-05-21T10:31:02.699Z,31.65
2019-05-21T10:32:02.691Z,31.22
2019-05-21T10:33:02.672Z,30.91
2019-05-21T10:34:02.682Z,30.70
2019-05-21T10:35:03.237Z,30.37
2019-05-21T10:36:02.642Z,30.10
2019-05-21T10:37:02.814Z,29.81
2019-05-21T10:38:02.620Z,29.64
2019-05-21T10:39:02.610Z,29.44
2019-05-21T10:40:03.194Z,29.27
2019-05-21T10:41:02.595Z,29.03
2019-05-21T10:42:02.588Z,28.97
2019-05-21T10:43:02.575Z,28.82
2019-05-21T10:44:02.558Z,28.73
2019-05-21T10:45:02.549Z,29.11
2019-05-21T10:46:02.536Z,29.10
2019-05-21T10:47:02.525Z,28.87
2019-05-21T10:48:02.525Z,28.77
2019-05-21T10:49:02.503Z,28.67
2019-05-21T10:50:02.493Z,28.61
2019-05-21T10:51:02.486Z,28.79
2019-05-21T10:52:02.480Z,28.92
2019-05-21T10:53:02.469Z,29.07
2019-05-21T10:54:02.448Z,28.89
2019-05-21T10:55:02.439Z,28.73
2019-05-21T10:56:02.488Z,28.61
2019-05-21T10:57:02.432Z,28.52
2019-05-21T10:58:02.439Z,28.36
2019-05-21T10:59:02.398Z,28.33
2019-05-21T11:00:02.386Z,28.17
2019-05-21T11:01:02.379Z,28.11
2019-05-21T11:02:02.370Z,27.93
2019-05-21T11:03:02.366Z,27.93
2019-05-21T11:04:02.345Z,27.76
2019-05-21T11:05:02.334Z,27.69
2019-05-21T11:06:10.065Z,27.59
2019-05-21T11:07:03.312Z,27.42
2019-05-21T11:08:22.864Z,27.28
2019-05-21T11:09:03.293Z,27.28
2019-05-21T11:10:02.413Z,27.09
2019-05-21T11:11:02.274Z,27.02
2019-05-21T11:12:02.258Z,26.96
2019-05-21T11:13:02.257Z,26.79
2019-05-21T11:14:02.234Z,26.78
2019-05-21T11:15:02.252Z,26.65
2019-05-21T11:16:02.244Z,26.54
2019-05-21T11:17:02.213Z,26.54
2019-05-21T11:18:10.588Z,26.38
2019-05-21T11:19:03.190Z,26.32
2019-05-21T11:20:02.172Z,26.29
2019-05-21T11:21:02.178Z,26.31
2019-05-21T11:22:02.148Z,26.27
2019-05-21T11:23:02.146Z,26.12
2019-05-21T11:24:02.336Z,26.12
2019-05-21T11:25:02.115Z,26.12
2019-05-21T11:26:02.144Z,26.01
2019-05-21T11:27:04.715Z,25.97
2019-05-21T11:28:05.860Z,25.98
2019-05-21T11:29:02.152Z,25.89
2019-05-21T11:30:02.069Z,25.94
2019-05-21T11:31:02.054Z,25.78
2019-05-21T11:32:02.044Z,25.76
2019-05-21T11:33:02.033Z,25.82
2019-05-21T11:34:02.035Z,25.78
2019-05-21T11:35:02.032Z,25.72
2019-05-21T11:36:02.004Z,25.75
2019-05-21T11:37:01.989Z,25.78
2019-05-21T11:38:01.982Z,25.78
2019-05-21T11:39:02.341Z,25.76
2019-05-21T11:40:01.954Z,25.75
2019-05-21T11:41:02.066Z,25.67
2019-05-21T11:42:01.939Z,25.69
2019-05-21T11:43:01.924Z,25.60
2019-05-21T11:44:01.927Z,25.56
2019-05-21T11:45:01.918Z,25.53
2019-05-21T11:46:03.134Z,25.51
2019-05-21T11:47:01.889Z,25.49
2019-05-21T11:48:01.888Z,25.56
2019-05-21T11:49:01.875Z,25.49
2019-05-21T11:50:01.857Z,25.48
2019-05-21T11:51:01.840Z,25.57
2019-05-21T11:52:01.823Z,25.49
2019-05-21T11:53:01.814Z,25.57
2019-05-21T11:54:01.817Z,25.38
2019-05-21T11:55:01.798Z,25.44
2019-05-21T11:56:01.782Z,25.34
2019-05-21T11:57:01.771Z,25.34
2019-05-21T11:58:01.758Z,25.20
2019-05-21T11:59:01.758Z,25.23
2019-05-21T12:00:01.744Z,25.23
2019-05-21T12:01:01.726Z,25.14
2019-05-21T12:02:01.715Z,25.14
2019-05-21T12:03:01.765Z,25.02
2019-05-21T12:04:01.709Z,25.05
2019-05-21T12:05:01.703Z,25.01
2019-05-21T12:06:01.676Z,25.04
2019-05-21T12:07:03.429Z,25.04
2019-05-21T12:08:01.654Z,24.93
2019-05-21T12:09:01.652Z,25.04
2019-05-21T12:10:01.631Z,25.11
2019-05-21T12:11:01.621Z,25.04
2019-05-21T12:12:01.606Z,25.01
2019-05-21T12:13:01.619Z,25.01
2019-05-21T12:14:01.594Z,24.99
2019-05-21T12:15:01.669Z,25.02
2019-05-21T12:16:01.564Z,25.02
2019-05-21T12:17:01.566Z,25.05
2019-05-21T12:18:01.542Z,25.02
2019-05-21T12:19:01.553Z,25.04
2019-05-21T12:20:01.546Z,25.04
2019-05-21T12:21:01.515Z,25.05
2019-05-21T12:22:01.516Z,25.04
2019-05-21T12:23:01.509Z,24.97
2019-05-21T12:24:01.498Z,24.99
2019-05-21T12:25:01.486Z,25.08
2019-05-21T12:26:01.460Z,25.01
2019-05-21T12:27:01.450Z,24.93
2019-05-21T12:28:01.446Z,24.98
2019-05-21T12:29:01.468Z,24.99
2019-05-21T12:30:01.422Z,24.98
2019-05-21T12:31:01.481Z,25.04
2019-05-21T12:32:01.402Z,25.08
2019-05-21T12:33:01.407Z,25.08
2019-05-21T12:34:01.396Z,25.02
2019-05-21T12:35:01.397Z,25.05
2019-05-21T12:36:01.354Z,25.12
2019-05-21T12:37:01.343Z,25.08
2019-05-21T12:38:01.331Z,25.14
2019-05-21T12:39:13.860Z,25.20
2019-05-21T12:40:02.316Z,25.24
2019-05-21T12:41:01.308Z,25.20
2019-05-21T12:42:01.292Z,25.27
2019-05-21T12:43:01.269Z,25.24
2019-05-21T12:44:01.260Z,25.24
2019-05-21T12:45:01.262Z,25.26
2019-05-21T12:46:01.236Z,25.24
2019-05-21T12:47:01.225Z,25.26
2019-05-21T12:48:01.215Z,25.22
2019-05-21T12:49:01.207Z,25.29
2019-05-21T12:50:01.218Z,25.29
2019-05-21T12:51:01.189Z,25.20
2019-05-21T12:52:01.187Z,25.22